sensor_id;sensor_type;location;lat;lon;timestamp;P1;durP1;ratioP1;P2;durP2;ratioP2
30062;SDS011;16889;67.864;24.990;2023-03-20T00:02:35;7.40;;;4.78;;
30062;SDS011;16889;67.864;24.990;2023-03-20T00:07:22;6.30;;;4.30;;
30062;SDS011;16889;67.864;24.990;2023-03-20T00:12:15;6.35;;;4.47;;
30062;SDS011;16889;67.864;24.990;2023-03-20T00:17:11;8.07;;;4.97;;
30062;SDS011;16889;67.864;24.990;2023-03-20T00:22:04;7.45;;;5.40;;
30062;SDS011;16889;67.864;24.990;2023-03-20T00:26:50;10.18;;;5.63;;
30062;SDS011;16889;67.864;24.990;2023-03-20T00:31:37;9.52;;;5.47;;
30062;SDS011;16889;67.864;24.990;2023-03-20T00:36:24;7.78;;;5.68;;
30062;SDS011;16889;67.864;24.990;2023-03-20T00:41:18;7.72;;;5.00;;
30062;SDS011;16889;67.864;24.990;2023-03-20T00:46:12;8.07;;;5.28;;
30062;SDS011;16889;67.864;24.990;2023-03-20T00:50:59;11.60;;;5.63;;
30062;SDS011;16889;67.864;24.990;2023-03-20T00:55:45;8.68;;;5.82;;
30062;SDS011;16889;67.864;24.990;2023-03-20T01:00:41;10.43;;;5.85;;
30062;SDS011;16889;67.864;24.990;2023-03-20T01:05:28;9.00;;;6.40;;
30062;SDS011;16889;67.864;24.990;2023-03-20T01:10:14;12.43;;;6.28;;
30062;SDS011;16889;67.864;24.990;2023-03-20T01:15:00;11.75;;;6.43;;
30062;SDS011;16889;67.864;24.990;2023-03-20T01:19:46;10.60;;;6.43;;
30062;SDS011;16889;67.864;24.990;2023-03-20T01:24:33;9.40;;;6.78;;
30062;SDS011;16889;67.864;24.990;2023-03-20T01:29:20;12.95;;;6.68;;
30062;SDS011;16889;67.864;24.990;2023-03-20T01:34:11;11.27;;;7.70;;
30062;SDS011;16889;67.864;24.990;2023-03-20T01:38:57;10.63;;;6.65;;
30062;SDS011;16889;67.864;24.990;2023-03-20T01:43:44;10.20;;;7.43;;
30062;SDS011;16889;67.864;24.990;2023-03-20T01:53:34;12.98;;;6.63;;
30062;SDS011;16889;67.864;24.990;2023-03-20T01:58:22;11.68;;;7.05;;
30062;SDS011;16889;67.864;24.990;2023-03-20T02:03:12;9.93;;;6.28;;
30062;SDS011;16889;67.864;24.990;2023-03-20T02:08:21;9.30;;;5.53;;
30062;SDS011;16889;67.864;24.990;2023-03-20T02:13:30;7.75;;;4.80;;
30062;SDS011;16889;67.864;24.990;2023-03-20T02:18:17;8.45;;;5.50;;
30062;SDS011;16889;67.864;24.990;2023-03-20T02:23:12;7.88;;;5.22;;
30062;SDS011;16889;67.864;24.990;2023-03-20T02:43:14;8.63;;;4.32;;
30062;SDS011;16889;67.864;24.990;2023-03-20T02:48:04;7.30;;;4.38;;
30062;SDS011;16889;67.864;24.990;2023-03-20T02:53:30;6.28;;;4.20;;
30062;SDS011;16889;67.864;24.990;2023-03-20T02:58:21;5.70;;;3.97;;
30062;SDS011;16889;67.864;24.990;2023-03-20T03:03:19;5.43;;;3.90;;
30062;SDS011;16889;67.864;24.990;2023-03-20T03:08:19;7.22;;;3.88;;
30062;SDS011;16889;67.864;24.990;2023-03-20T03:13:10;4.93;;;3.58;;
30062;SDS011;16889;67.864;24.990;2023-03-20T03:18:01;5.95;;;3.63;;
30062;SDS011;16889;67.864;24.990;2023-03-20T03:22:51;6.35;;;3.88;;
30062;SDS011;16889;67.864;24.990;2023-03-20T03:27:38;4.95;;;3.80;;
30062;SDS011;16889;67.864;24.990;2023-03-20T03:37:42;4.97;;;3.67;;
30062;SDS011;16889;67.864;24.990;2023-03-20T03:42:48;7.93;;;3.78;;
30062;SDS011;16889;67.864;24.990;2023-03-20T03:47:53;4.07;;;2.88;;
30062;SDS011;16889;67.864;24.990;2023-03-20T03:52:46;6.43;;;3.60;;
30062;SDS011;16889;67.864;24.990;2023-03-20T03:57:37;4.25;;;3.17;;
30062;SDS011;16889;67.864;24.990;2023-03-20T04:02:30;5.30;;;3.55;;
30062;SDS011;16889;67.864;24.990;2023-03-20T04:07:16;4.43;;;2.83;;
30062;SDS011;16889;67.864;24.990;2023-03-20T04:12:02;3.55;;;2.70;;
30062;SDS011;16889;67.864;24.990;2023-03-20T04:16:49;3.45;;;2.60;;
30062;SDS011;16889;67.864;24.990;2023-03-20T04:21:35;3.97;;;2.58;;
30062;SDS011;16889;67.864;24.990;2023-03-20T04:26:22;4.82;;;2.90;;
30062;SDS011;16889;67.864;24.990;2023-03-20T04:31:08;3.65;;;2.70;;
30062;SDS011;16889;67.864;24.990;2023-03-20T04:35:54;4.30;;;2.53;;
30062;SDS011;16889;67.864;24.990;2023-03-20T04:40:40;4.03;;;2.60;;
30062;SDS011;16889;67.864;24.990;2023-03-20T04:45:27;4.65;;;2.35;;
30062;SDS011;16889;67.864;24.990;2023-03-20T04:50:13;5.05;;;2.47;;
30062;SDS011;16889;67.864;24.990;2023-03-20T04:55:00;3.78;;;2.30;;
30062;SDS011;16889;67.864;24.990;2023-03-20T04:59:46;3.70;;;2.45;;
30062;SDS011;16889;67.864;24.990;2023-03-20T05:04:32;5.00;;;2.10;;
30062;SDS011;16889;67.864;24.990;2023-03-20T05:09:18;3.72;;;2.20;;
30062;SDS011;16889;67.864;24.990;2023-03-20T05:14:04;3.28;;;1.73;;
30062;SDS011;16889;67.864;24.990;2023-03-20T05:18:50;3.10;;;1.97;;
30062;SDS011;16889;67.864;24.990;2023-03-20T05:23:37;3.80;;;1.80;;
30062;SDS011;16889;67.864;24.990;2023-03-20T05:28:23;2.17;;;1.73;;
30062;SDS011;16889;67.864;24.990;2023-03-20T05:33:09;4.13;;;2.05;;
30062;SDS011;16889;67.864;24.990;2023-03-20T05:37:55;3.15;;;1.92;;
30062;SDS011;16889;67.864;24.990;2023-03-20T05:42:41;3.13;;;1.90;;
30062;SDS011;16889;67.864;24.990;2023-03-20T05:47:28;2.70;;;1.83;;
30062;SDS011;16889;67.864;24.990;2023-03-20T05:52:14;2.78;;;1.77;;
30062;SDS011;16889;67.864;24.990;2023-03-20T05:57:00;2.08;;;1.65;;
30062;SDS011;16889;67.864;24.990;2023-03-20T06:01:46;2.95;;;1.80;;
30062;SDS011;16889;67.864;24.990;2023-03-20T06:06:32;3.33;;;1.67;;
30062;SDS011;16889;67.864;24.990;2023-03-20T06:11:21;3.30;;;1.70;;
30062;SDS011;16889;67.864;24.990;2023-03-20T06:16:08;4.82;;;1.58;;
30062;SDS011;16889;67.864;24.990;2023-03-20T06:20:54;2.70;;;1.70;;
30062;SDS011;16889;67.864;24.990;2023-03-20T06:25:41;4.03;;;1.75;;
30062;SDS011;16889;67.864;24.990;2023-03-20T06:30:27;2.80;;;1.73;;
30062;SDS011;16889;67.864;24.990;2023-03-20T06:35:13;1.65;;;1.30;;
30062;SDS011;16889;67.864;24.990;2023-03-20T06:39:59;4.72;;;1.40;;
30062;SDS011;16889;67.864;24.990;2023-03-20T06:44:46;4.15;;;1.50;;
30062;SDS011;16889;67.864;24.990;2023-03-20T06:49:32;2.33;;;1.38;;
30062;SDS011;16889;67.864;24.990;2023-03-20T06:54:18;2.42;;;1.42;;
30062;SDS011;16889;67.864;24.990;2023-03-20T06:59:04;2.10;;;1.08;;
30062;SDS011;16889;67.864;24.990;2023-03-20T07:03:50;3.38;;;1.40;;
30062;SDS011;16889;67.864;24.990;2023-03-20T07:08:36;1.50;;;1.20;;
30062;SDS011;16889;67.864;24.990;2023-03-20T07:13:22;2.45;;;1.00;;
30062;SDS011;16889;67.864;24.990;2023-03-20T07:18:08;2.95;;;0.95;;
30062;SDS011;16889;67.864;24.990;2023-03-20T07:22:54;1.77;;;1.00;;
30062;SDS011;16889;67.864;24.990;2023-03-20T07:27:40;2.55;;;0.90;;
30062;SDS011;16889;67.864;24.990;2023-03-20T07:32:30;2.50;;;1.10;;
30062;SDS011;16889;67.864;24.990;2023-03-20T07:37:17;2.88;;;1.15;;
30062;SDS011;16889;67.864;24.990;2023-03-20T07:42:03;2.67;;;0.90;;
30062;SDS011;16889;67.864;24.990;2023-03-20T07:46:49;2.40;;;0.90;;
30062;SDS011;16889;67.864;24.990;2023-03-20T07:51:35;3.30;;;1.10;;
30062;SDS011;16889;67.864;24.990;2023-03-20T07:56:21;3.15;;;1.13;;
30062;SDS011;16889;67.864;24.990;2023-03-20T08:01:07;3.47;;;1.20;;
30062;SDS011;16889;67.864;24.990;2023-03-20T08:05:53;3.17;;;0.98;;
30062;SDS011;16889;67.864;24.990;2023-03-20T08:10:40;2.35;;;1.00;;
30062;SDS011;16889;67.864;24.990;2023-03-20T08:15:26;3.53;;;0.80;;
30062;SDS011;16889;67.864;24.990;2023-03-20T08:20:12;1.00;;;0.70;;
30062;SDS011;16889;67.864;24.990;2023-03-20T08:25:00;2.25;;;0.82;;
30062;SDS011;16889;67.864;24.990;2023-03-20T08:29:46;1.50;;;0.90;;
30062;SDS011;16889;67.864;24.990;2023-03-20T08:34:32;1.52;;;1.02;;
30062;SDS011;16889;67.864;24.990;2023-03-20T08:39:18;2.00;;;1.08;;
30062;SDS011;16889;67.864;24.990;2023-03-20T08:44:04;1.80;;;1.00;;
30062;SDS011;16889;67.864;24.990;2023-03-20T08:48:50;2.80;;;1.15;;
30062;SDS011;16889;67.864;24.990;2023-03-20T08:53:36;2.15;;;1.20;;
30062;SDS011;16889;67.864;24.990;2023-03-20T08:58:22;0.95;;;0.90;;
30062;SDS011;16889;67.864;24.990;2023-03-20T09:03:17;1.60;;;1.00;;
30062;SDS011;16889;67.864;24.990;2023-03-20T09:08:05;1.42;;;0.90;;
30062;SDS011;16889;67.864;24.990;2023-03-20T09:12:51;2.05;;;1.20;;
30062;SDS011;16889;67.864;24.990;2023-03-20T09:17:37;1.55;;;1.10;;
30062;SDS011;16889;67.864;24.990;2023-03-20T09:22:23;3.22;;;1.08;;
30062;SDS011;16889;67.864;24.990;2023-03-20T09:27:09;1.15;;;0.90;;
30062;SDS011;16889;67.864;24.990;2023-03-20T09:31:58;3.92;;;1.00;;
30062;SDS011;16889;67.864;24.990;2023-03-20T09:36:44;1.30;;;0.90;;
30062;SDS011;16889;67.864;24.990;2023-03-20T09:41:30;0.95;;;0.90;;
30062;SDS011;16889;67.864;24.990;2023-03-20T09:51:54;1.20;;;0.98;;
30062;SDS011;16889;67.864;24.990;2023-03-20T09:57:03;2.05;;;1.10;;
30062;SDS011;16889;67.864;24.990;2023-03-20T10:01:56;1.38;;;1.10;;
30062;SDS011;16889;67.864;24.990;2023-03-20T10:06:47;2.00;;;1.02;;
30062;SDS011;16889;67.864;24.990;2023-03-20T10:11:41;2.83;;;1.10;;
30062;SDS011;16889;67.864;24.990;2023-03-20T10:26:25;4.22;;;1.25;;
30062;SDS011;16889;67.864;24.990;2023-03-20T10:40:55;1.30;;;0.90;;
30062;SDS011;16889;67.864;24.990;2023-03-20T10:45:47;1.58;;;1.02;;
30062;SDS011;16889;67.864;24.990;2023-03-20T10:50:39;1.67;;;1.10;;
30062;SDS011;16889;67.864;24.990;2023-03-20T10:55:33;1.83;;;1.10;;
30062;SDS011;16889;67.864;24.990;2023-03-20T11:00:26;2.15;;;1.10;;
30062;SDS011;16889;67.864;24.990;2023-03-20T11:05:21;1.38;;;1.10;;
30062;SDS011;16889;67.864;24.990;2023-03-20T11:10:13;2.10;;;1.20;;
30062;SDS011;16889;67.864;24.990;2023-03-20T11:20:09;2.78;;;1.20;;
30062;SDS011;16889;67.864;24.990;2023-03-20T11:24:59;1.48;;;1.10;;
30062;SDS011;16889;67.864;24.990;2023-03-20T11:29:47;3.67;;;1.08;;
30062;SDS011;16889;67.864;24.990;2023-03-20T11:34:35;1.60;;;1.30;;
30062;SDS011;16889;67.864;24.990;2023-03-20T11:39:31;2.67;;;0.98;;
30062;SDS011;16889;67.864;24.990;2023-03-20T11:49:21;2.47;;;1.05;;
30062;SDS011;16889;67.864;24.990;2023-03-20T11:54:15;2.60;;;1.30;;
30062;SDS011;16889;67.864;24.990;2023-03-20T12:08:40;2.30;;;1.05;;
30062;SDS011;16889;67.864;24.990;2023-03-20T12:13:31;1.73;;;1.00;;
30062;SDS011;16889;67.864;24.990;2023-03-20T12:18:25;1.58;;;0.80;;
30062;SDS011;16889;67.864;24.990;2023-03-20T12:28:25;1.98;;;0.98;;
30062;SDS011;16889;67.864;24.990;2023-03-20T12:39:11;1.45;;;1.08;;
30062;SDS011;16889;67.864;24.990;2023-03-20T12:44:05;2.10;;;1.05;;
30062;SDS011;16889;67.864;24.990;2023-03-20T12:49:36;0.95;;;0.70;;
30062;SDS011;16889;67.864;24.990;2023-03-20T12:55:06;1.92;;;1.02;;
30062;SDS011;16889;67.864;24.990;2023-03-20T13:00:02;1.98;;;1.08;;
30062;SDS011;16889;67.864;24.990;2023-03-20T13:10:08;1.60;;;1.20;;
30062;SDS011;16889;67.864;24.990;2023-03-20T13:15:10;1.45;;;1.20;;
30062;SDS011;16889;67.864;24.990;2023-03-20T13:30:44;1.27;;;0.80;;
30062;SDS011;16889;67.864;24.990;2023-03-20T14:05:18;2.80;;;1.10;;
30062;SDS011;16889;67.864;24.990;2023-03-20T14:15:09;1.65;;;0.80;;
30062;SDS011;16889;67.864;24.990;2023-03-20T14:19:56;1.63;;;0.80;;
30062;SDS011;16889;67.864;24.990;2023-03-20T14:29:52;0.90;;;0.60;;
30062;SDS011;16889;67.864;24.990;2023-03-20T14:34:49;2.20;;;0.90;;
30062;SDS011;16889;67.864;24.990;2023-03-20T14:39:47;1.00;;;0.60;;
30062;SDS011;16889;67.864;24.990;2023-03-20T14:45:01;1.33;;;0.70;;
30062;SDS011;16889;67.864;24.990;2023-03-20T14:49:57;1.50;;;0.70;;
30062;SDS011;16889;67.864;24.990;2023-03-20T15:05:18;2.20;;;0.80;;
30062;SDS011;16889;67.864;24.990;2023-03-20T15:10:10;1.67;;;0.73;;
30062;SDS011;16889;67.864;24.990;2023-03-20T15:14:57;1.03;;;0.70;;
30062;SDS011;16889;67.864;24.990;2023-03-20T15:19:45;2.95;;;0.98;;
30062;SDS011;16889;67.864;24.990;2023-03-20T15:24:31;2.30;;;0.80;;
30062;SDS011;16889;67.864;24.990;2023-03-20T15:29:17;1.58;;;0.80;;
30062;SDS011;16889;67.864;24.990;2023-03-20T15:34:08;1.95;;;0.70;;
30062;SDS011;16889;67.864;24.990;2023-03-20T15:39:18;1.30;;;0.80;;
30062;SDS011;16889;67.864;24.990;2023-03-20T15:49:00;6.32;;;2.00;;
30062;SDS011;16889;67.864;24.990;2023-03-20T15:53:48;1.90;;;0.82;;
30062;SDS011;16889;67.864;24.990;2023-03-20T15:58:34;2.13;;;0.90;;
30062;SDS011;16889;67.864;24.990;2023-03-20T16:03:21;1.95;;;1.00;;
30062;SDS011;16889;67.864;24.990;2023-03-20T16:08:22;3.00;;;1.13;;
30062;SDS011;16889;67.864;24.990;2023-03-20T16:13:15;1.92;;;0.80;;
30062;SDS011;16889;67.864;24.990;2023-03-20T16:18:02;1.75;;;0.77;;
30062;SDS011;16889;67.864;24.990;2023-03-20T16:22:51;2.55;;;1.08;;
30062;SDS011;16889;67.864;24.990;2023-03-20T16:27:40;1.45;;;0.98;;
30062;SDS011;16889;67.864;24.990;2023-03-20T16:32:35;2.72;;;0.93;;
30062;SDS011;16889;67.864;24.990;2023-03-20T16:37:28;3.50;;;1.10;;
30062;SDS011;16889;67.864;24.990;2023-03-20T16:42:24;3.45;;;1.02;;
30062;SDS011;16889;67.864;24.990;2023-03-20T16:47:14;2.65;;;0.80;;
30062;SDS011;16889;67.864;24.990;2023-03-20T16:52:07;1.42;;;0.80;;
30062;SDS011;16889;67.864;24.990;2023-03-20T16:56:56;2.08;;;0.70;;
30062;SDS011;16889;67.864;24.990;2023-03-20T17:06:35;2.40;;;1.52;;
30062;SDS011;16889;67.864;24.990;2023-03-20T17:16:16;1.00;;;0.73;;
30062;SDS011;16889;67.864;24.990;2023-03-20T17:21:04;2.10;;;0.90;;
30062;SDS011;16889;67.864;24.990;2023-03-20T17:25:51;0.83;;;0.83;;
30062;SDS011;16889;67.864;24.990;2023-03-20T17:30:38;3.00;;;1.30;;
30062;SDS011;16889;67.864;24.990;2023-03-20T17:35:24;2.35;;;0.95;;
30062;SDS011;16889;67.864;24.990;2023-03-20T17:40:15;1.93;;;0.87;;
30062;SDS011;16889;67.864;24.990;2023-03-20T17:45:05;1.63;;;0.90;;
30062;SDS011;16889;67.864;24.990;2023-03-20T17:49:52;1.60;;;1.15;;
30062;SDS011;16889;67.864;24.990;2023-03-20T17:54:38;4.88;;;1.00;;
30062;SDS011;16889;67.864;24.990;2023-03-20T17:59:24;2.45;;;1.25;;
30062;SDS011;16889;67.864;24.990;2023-03-20T18:04:15;2.47;;;0.80;;
30062;SDS011;16889;67.864;24.990;2023-03-20T18:09:01;1.03;;;0.67;;
30062;SDS011;16889;67.864;24.990;2023-03-20T18:13:48;0.93;;;0.80;;
30062;SDS011;16889;67.864;24.990;2023-03-20T18:18:34;1.98;;;1.15;;
30062;SDS011;16889;67.864;24.990;2023-03-20T18:23:20;3.33;;;1.83;;
30062;SDS011;16889;67.864;24.990;2023-03-20T18:28:10;23.15;;;7.55;;
30062;SDS011;16889;67.864;24.990;2023-03-20T18:33:02;16.30;;;5.03;;
30062;SDS011;16889;67.864;24.990;2023-03-20T18:37:49;15.23;;;4.35;;
30062;SDS011;16889;67.864;24.990;2023-03-20T18:42:35;8.60;;;2.23;;
30062;SDS011;16889;67.864;24.990;2023-03-20T18:47:21;10.73;;;2.33;;
30062;SDS011;16889;67.864;24.990;2023-03-20T18:52:06;2.63;;;1.20;;
30062;SDS011;16889;67.864;24.990;2023-03-20T18:56:52;4.23;;;0.77;;
30062;SDS011;16889;67.864;24.990;2023-03-20T19:01:44;2.40;;;0.82;;
30062;SDS011;16889;67.864;24.990;2023-03-20T19:06:30;1.17;;;0.87;;
30062;SDS011;16889;67.864;24.990;2023-03-20T19:11:16;2.47;;;1.27;;
30062;SDS011;16889;67.864;24.990;2023-03-20T19:16:03;3.58;;;1.23;;
30062;SDS011;16889;67.864;24.990;2023-03-20T19:20:58;2.03;;;1.00;;
30062;SDS011;16889;67.864;24.990;2023-03-20T19:25:45;2.55;;;1.25;;
30062;SDS011;16889;67.864;24.990;2023-03-20T19:30:34;2.33;;;1.30;;
30062;SDS011;16889;67.864;24.990;2023-03-20T19:35:24;4.45;;;1.60;;
30062;SDS011;16889;67.864;24.990;2023-03-20T19:40:54;4.85;;;1.15;;
30062;SDS011;16889;67.864;24.990;2023-03-20T19:45:26;3.38;;;1.15;;
30062;SDS011;16889;67.864;24.990;2023-03-20T19:50:33;4.05;;;1.35;;
30062;SDS011;16889;67.864;24.990;2023-03-20T19:55:21;5.20;;;1.40;;
30062;SDS011;16889;67.864;24.990;2023-03-20T20:00:09;3.28;;;0.90;;
30062;SDS011;16889;67.864;24.990;2023-03-20T20:04:58;1.00;;;0.70;;
30062;SDS011;16889;67.864;24.990;2023-03-20T20:09:44;1.20;;;0.95;;
30062;SDS011;16889;67.864;24.990;2023-03-20T20:14:30;2.08;;;1.00;;
30062;SDS011;16889;67.864;24.990;2023-03-20T20:19:16;5.10;;;0.98;;
30062;SDS011;16889;67.864;24.990;2023-03-20T20:24:02;1.42;;;1.00;;
30062;SDS011;16889;67.864;24.990;2023-03-20T20:33:35;2.43;;;0.77;;
30062;SDS011;16889;67.864;24.990;2023-03-20T20:38:21;1.13;;;0.80;;
30062;SDS011;16889;67.864;24.990;2023-03-20T20:43:07;1.25;;;1.05;;
30062;SDS011;16889;67.864;24.990;2023-03-20T20:47:53;2.80;;;1.20;;
30062;SDS011;16889;67.864;24.990;2023-03-20T20:52:40;1.23;;;0.82;;
30062;SDS011;16889;67.864;24.990;2023-03-20T20:57:26;3.53;;;0.80;;
30062;SDS011;16889;67.864;24.990;2023-03-20T21:07:01;1.58;;;0.80;;
30062;SDS011;16889;67.864;24.990;2023-03-20T21:16:33;1.37;;;0.70;;
30062;SDS011;16889;67.864;24.990;2023-03-20T21:21:19;1.75;;;0.90;;
30062;SDS011;16889;67.864;24.990;2023-03-20T21:26:05;0.77;;;0.77;;
30062;SDS011;16889;67.864;24.990;2023-03-20T21:30:52;0.70;;;0.70;;
30062;SDS011;16889;67.864;24.990;2023-03-20T21:35:38;0.80;;;0.77;;
30062;SDS011;16889;67.864;24.990;2023-03-20T21:40:24;1.08;;;0.63;;
30062;SDS011;16889;67.864;24.990;2023-03-20T21:45:10;2.88;;;0.77;;
30062;SDS011;16889;67.864;24.990;2023-03-20T21:49:57;3.30;;;0.88;;
30062;SDS011;16889;67.864;24.990;2023-03-20T21:54:43;3.50;;;1.10;;
30062;SDS011;16889;67.864;24.990;2023-03-20T21:59:30;1.80;;;0.98;;
30062;SDS011;16889;67.864;24.990;2023-03-20T22:04:16;1.67;;;1.00;;
30062;SDS011;16889;67.864;24.990;2023-03-20T22:09:03;2.67;;;0.98;;
30062;SDS011;16889;67.864;24.990;2023-03-20T22:13:49;1.67;;;1.00;;
30062;SDS011;16889;67.864;24.990;2023-03-20T22:18:35;1.55;;;0.93;;
30062;SDS011;16889;67.864;24.990;2023-03-20T22:23:21;2.88;;;1.13;;
30062;SDS011;16889;67.864;24.990;2023-03-20T22:28:07;2.88;;;1.17;;
30062;SDS011;16889;67.864;24.990;2023-03-20T22:32:53;5.80;;;1.20;;
30062;SDS011;16889;67.864;24.990;2023-03-20T22:37:39;1.40;;;1.00;;
30062;SDS011;16889;67.864;24.990;2023-03-20T22:42:25;4.05;;;0.90;;
30062;SDS011;16889;67.864;24.990;2023-03-20T22:47:11;1.30;;;0.77;;
30062;SDS011;16889;67.864;24.990;2023-03-20T22:51:57;1.40;;;0.90;;
30062;SDS011;16889;67.864;24.990;2023-03-20T22:56:43;2.33;;;1.00;;
30062;SDS011;16889;67.864;24.990;2023-03-20T23:01:30;4.28;;;1.10;;
30062;SDS011;16889;67.864;24.990;2023-03-20T23:06:18;1.35;;;0.90;;
30062;SDS011;16889;67.864;24.990;2023-03-20T23:11:05;2.55;;;0.90;;
30062;SDS011;16889;67.864;24.990;2023-03-20T23:15:52;0.98;;;0.80;;
30062;SDS011;16889;67.864;24.990;2023-03-20T23:20:38;0.68;;;0.68;;
30062;SDS011;16889;67.864;24.990;2023-03-20T23:25:25;2.78;;;1.00;;
30062;SDS011;16889;67.864;24.990;2023-03-20T23:30:11;2.17;;;0.77;;
30062;SDS011;16889;67.864;24.990;2023-03-20T23:34:57;1.27;;;0.80;;
30062;SDS011;16889;67.864;24.990;2023-03-20T23:39:43;0.57;;;0.55;;
30062;SDS011;16889;67.864;24.990;2023-03-20T23:44:29;0.98;;;0.80;;
30062;SDS011;16889;67.864;24.990;2023-03-20T23:49:15;1.70;;;0.70;;
30062;SDS011;16889;67.864;24.990;2023-03-20T23:54:01;1.35;;;0.70;;
30062;SDS011;16889;67.864;24.990;2023-03-20T23:58:48;0.60;;;0.60;;
